Amberes, Argentina
Current Conditions -  °F | °C
As of 9:00 AM on Monday 26 Jan 2015 (Local Time) from SLTJ Reporting Station
Few Clouds Few Clouds  
Wind Chill: 66°   Ceiling: Unl
Heat Index: 66°   Visibility: 6mi
Dew Point: 59°   Wind: 0mph
Humidity: 78%   Direction: NA
Pressure: 30.12"   Gusts: NA
Location:  22.52°S, 62.53°W
Report Text: SLTJ 261200Z 00000KT 9999 FEW030 19/15 Q1020
Loading
Personal Weather Stations






























Interactive Weather Map New forecast layout! Learn more

10-Day Weather Forecast

Advertisements
Track Severe Weather on mobile